Time;durP1;ratioP1;P1;durP2;ratioP2;P2;SDS_P1;SDS_P2;PMS_P1;PMS_P2;Temp;Humidity;BMP_temperature;BMP_pressure;BME280_temperature;BME280_humidity;BME280_pressure;Samples;Min_cycle;Max_cycle;Signal;HPM_P1;HPM_P2
2022/11/18 00:00:12;;;;;;;138.23;110.30;;;;;;;;;;5078678;28;20101;-70
2022/11/18 00:02:37;;;;;;;125.95;103.72;;;;;;;;;;5075822;28;20442;-68
2022/11/18 00:05:03;;;;;;;125.40;100.78;;;;;;;;;;5073766;28;20036;-70
2022/11/18 00:07:28;;;;;;;122.45;97.72;;;;;;;;;;5077972;28;20035;-71
2022/11/18 00:09:54;;;;;;;149.98;116.70;;;;;;;;;;5077029;28;20024;-71
2022/11/18 00:15:03;;;;;;;86.40;65.53;;;;;;;;;;5074668;28;20123;-72
2022/11/18 00:17:30;;;;;;;80.55;62.40;;;;;;;;;;5068480;28;20127;-70
2022/11/18 00:19:56;;;;;;;64.55;50.92;;;;;;;;;;5069325;28;20028;-70
2022/11/18 00:22:21;;;;;;;87.63;66.03;;;;;;;;;;5077796;28;20074;-72
2022/11/18 00:24:46;;;;;;;89.32;65.90;;;;;;;;;;5076976;28;20077;-70
2022/11/18 00:27:12;;;;;;;93.90;68.55;;;;;;;;;;5075118;28;20024;-70
2022/11/18 00:29:37;;;;;;;93.72;73.35;;;;;;;;;;5077591;28;20410;-73
2022/11/18 00:32:02;;;;;;;93.32;70.72;;;;;;;;;;5079969;28;20028;-70
2022/11/18 00:34:28;;;;;;;110.00;79.82;;;;;;;;;;5063905;28;20019;-69
2022/11/18 00:36:53;;;;;;;111.72;81.80;;;;;;;;;;5071242;28;20591;-70
2022/11/18 00:39:19;;;;;;;72.05;55.38;;;;;;;;;;5079110;28;20032;-69
2022/11/18 00:44:29;;;;;;;77.05;59.22;;;;;;;;;;5076577;28;20077;-72
2022/11/18 00:46:54;;;;;;;75.07;57.15;;;;;;;;;;5070929;28;20040;-71
2022/11/18 00:49:20;;;;;;;79.68;59.80;;;;;;;;;;5077505;28;20031;-71
2022/11/18 00:51:45;;;;;;;68.30;51.80;;;;;;;;;;5075974;28;20012;-72
2022/11/18 00:54:11;;;;;;;58.45;46.13;;;;;;;;;;5073115;28;20028;-70
2022/11/18 00:56:36;;;;;;;70.57;57.25;;;;;;;;;;5073272;28;20044;-70
2022/11/18 00:59:02;;;;;;;86.28;66.13;;;;;;;;;;5074477;28;20336;-70
2022/11/18 01:01:27;;;;;;;93.82;69.53;;;;;;;;;;5077276;28;20017;-70
2022/11/18 01:03:52;;;;;;;96.15;69.95;;;;;;;;;;5077857;28;20424;-70
2022/11/18 01:06:18;;;;;;;103.43;75.93;;;;;;;;;;5077671;28;20042;-72
2022/11/18 01:08:43;;;;;;;89.20;65.68;;;;;;;;;;5068766;28;20110;-72
2022/11/18 01:13:53;;;;;;;89.72;69.10;;;;;;;;;;5077573;28;20039;-72
2022/11/18 01:16:19;;;;;;;84.68;65.30;;;;;;;;;;5077265;28;20032;-70
2022/11/18 01:18:44;;;;;;;63.63;46.42;;;;;;;;;;5070081;28;20058;-70
2022/11/18 01:21:10;;;;;;;59.28;45.50;;;;;;;;;;5068346;28;20024;-70
2022/11/18 01:23:35;;;;;;;48.78;38.80;;;;;;;;;;5069003;28;20043;-70
2022/11/18 01:26:03;;;;;;;63.08;46.30;;;;;;;;;;5076305;28;20032;-71
2022/11/18 01:28:29;;;;;;;47.67;35.58;;;;;;;;;;5079143;28;20042;-70
2022/11/18 01:31:01;;;;;;;49.28;37.85;;;;;;;;;;5079145;28;20028;-70
2022/11/18 01:33:27;;;;;;;34.63;27.58;;;;;;;;;;5075893;28;20020;-70
2022/11/18 01:35:52;;;;;;;38.47;30.30;;;;;;;;;;5077775;28;20070;-71
2022/11/18 01:38:17;;;;;;;45.40;36.85;;;;;;;;;;5078606;28;20039;-70
2022/11/18 01:40:43;;;;;;;53.75;41.35;;;;;;;;;;5075861;28;20020;-70
2022/11/18 01:43:12;;;;;;;53.20;42.67;;;;;;;;;;5069730;28;20345;-72
2022/11/18 01:45:38;;;;;;;46.35;36.50;;;;;;;;;;5075316;28;20073;-70
2022/11/18 01:48:14;;;;;;;46.45;36.78;;;;;;;;;;5079210;28;20036;-71
2022/11/18 01:50:45;;;;;;;59.78;46.92;;;;;;;;;;5061244;28;20024;-72
2022/11/18 01:53:13;;;;;;;60.45;45.60;;;;;;;;;;5076125;28;20031;-70
2022/11/18 01:55:41;;;;;;;41.28;31.90;;;;;;;;;;5077799;28;20028;-70
2022/11/18 01:58:11;;;;;;;52.42;38.47;;;;;;;;;;5078906;28;20499;-71
2022/11/18 02:00:37;;;;;;;80.93;65.07;;;;;;;;;;5077077;28;20032;-70
2022/11/18 02:03:03;;;;;;;84.25;62.65;;;;;;;;;;5079245;28;20024;-71
2022/11/18 02:05:28;;;;;;;81.03;61.67;;;;;;;;;;5077525;28;20340;-70
2022/11/18 02:07:55;;;;;;;72.80;53.85;;;;;;;;;;5077354;28;20032;-69
2022/11/18 02:10:21;;;;;;;112.72;82.43;;;;;;;;;;5079138;28;20119;-70
2022/11/18 02:12:48;;;;;;;113.03;86.60;;;;;;;;;;5078486;28;20024;-69
2022/11/18 02:15:13;;;;;;;79.43;59.83;;;;;;;;;;5075518;28;20077;-70
2022/11/18 02:17:46;;;;;;;92.07;68.05;;;;;;;;;;5077712;28;20036;-70
2022/11/18 02:20:29;;;;;;;107.00;78.80;;;;;;;;;;5073930;28;20819;-71
2022/11/18 02:23:12;;;;;;;133.75;104.78;;;;;;;;;;5078796;28;20053;-70
2022/11/18 02:25:44;;;;;;;89.20;64.88;;;;;;;;;;5076336;28;20107;-70
2022/11/18 02:28:23;;;;;;;105.35;76.43;;;;;;;;;;5076255;28;20540;-70
2022/11/18 02:30:52;;;;;;;62.65;46.38;;;;;;;;;;5078637;28;20048;-70
2022/11/18 02:33:27;;;;;;;66.30;50.53;;;;;;;;;;5071796;28;20038;-70
2022/11/18 02:35:55;;;;;;;63.10;47.10;;;;;;;;;;5077258;28;20100;-71
2022/11/18 02:38:24;;;;;;;67.00;51.50;;;;;;;;;;5078568;28;20032;-70
2022/11/18 02:41:00;;;;;;;127.72;98.25;;;;;;;;;;5076176;28;20111;-70
2022/11/18 02:43:55;;;;;;;108.50;83.88;;;;;;;;;;5077005;28;20039;-73
2022/11/18 02:46:25;;;;;;;105.22;81.20;;;;;;;;;;5019307;28;20060;-70
2022/11/18 02:48:52;;;;;;;100.88;74.43;;;;;;;;;;5019283;28;20029;-71
2022/11/18 02:51:20;;;;;;;92.18;68.53;;;;;;;;;;5017482;28;20132;-72
2022/11/18 02:53:46;;;;;;;96.38;69.78;;;;;;;;;;5011152;28;20071;-71
2022/11/18 02:56:12;;;;;;;91.93;64.93;;;;;;;;;;5016816;28;20061;-70
2022/11/18 02:58:37;;;;;;;90.50;61.63;;;;;;;;;;5019378;28;20157;-70
2022/11/18 03:01:03;;;;;;;100.78;72.22;;;;;;;;;;5018642;28;20027;-71
2022/11/18 03:03:29;;;;;;;67.95;46.58;;;;;;;;;;5019199;28;20041;-69
2022/11/18 03:06:13;;;;;;;71.68;55.50;;;;;;;;;;5017416;28;20046;-69
2022/11/18 03:08:48;;;;;;;44.58;33.50;;;;;;;;;;5014470;28;20044;-70
2022/11/18 03:11:19;;;;;;;30.58;23.75;;;;;;;;;;5017453;28;20021;-69
2022/11/18 03:13:58;;;;;;;26.48;16.52;;;;;;;;;;5014554;28;20021;-70
2022/11/18 03:16:43;;;;;;;23.05;17.77;;;;;;;;;;5016954;28;20052;-70
2022/11/18 03:19:23;;;;;;;9.90;8.80;;;;;;;;;;5011965;28;20104;-72
2022/11/18 03:21:59;;;;;;;9.45;8.55;;;;;;;;;;5023431;28;20707;-70
2022/11/18 03:24:28;;;;;;;11.18;8.65;;;;;;;;;;5077734;28;21114;-70
2022/11/18 03:26:57;;;;;;;26.13;20.00;;;;;;;;;;5074024;28;20032;-71
2022/11/18 03:29:29;;;;;;;12.90;10.70;;;;;;;;;;5079116;28;20020;-69
2022/11/18 03:31:59;;;;;;;18.50;13.77;;;;;;;;;;5078391;28;20067;-71
2022/11/18 03:34:34;;;;;;;22.75;13.05;;;;;;;;;;5076271;28;20039;-71
2022/11/18 03:37:01;;;;;;;32.80;24.88;;;;;;;;;;5080780;28;20046;-69
2022/11/18 03:39:28;;;;;;;38.75;27.83;;;;;;;;;;5071206;28;20024;-71
2022/11/18 03:42:09;;;;;;;30.63;22.65;;;;;;;;;;5080795;28;20028;-71
2022/11/18 03:44:37;;;;;;;19.20;16.10;;;;;;;;;;5079050;28;20085;-70
2022/11/18 03:47:11;;;;;;;15.00;12.48;;;;;;;;;;5078598;28;20032;-69
2022/11/18 03:49:40;;;;;;;20.55;18.25;;;;;;;;;;5074623;28;20631;-69
2022/11/18 03:52:09;;;;;;;13.05;11.70;;;;;;;;;;5069934;28;20602;-71
2022/11/18 03:54:35;;;;;;;34.78;24.95;;;;;;;;;;5080084;28;20020;-70
2022/11/18 03:57:21;;;;;;;23.98;18.00;;;;;;;;;;5078099;28;20054;-70
2022/11/18 03:59:48;;;;;;;18.35;12.38;;;;;;;;;;5080532;28;20028;-71
2022/11/18 04:02:15;;;;;;;16.90;12.88;;;;;;;;;;5080616;28;20348;-71
2022/11/18 04:04:42;;;;;;;23.73;19.92;;;;;;;;;;5078716;28;20012;-72
2022/11/18 04:07:28;;;;;;;24.65;19.40;;;;;;;;;;5079695;28;21214;-72
2022/11/18 04:09:56;;;;;;;65.93;43.75;;;;;;;;;;5071428;28;20064;-70
2022/11/18 04:12:22;;;;;;;57.63;34.22;;;;;;;;;;5077353;28;20099;-71
2022/11/18 04:14:51;;;;;;;45.83;27.98;;;;;;;;;;5078582;28;20587;-70
2022/11/18 04:17:18;;;;;;;30.02;18.80;;;;;;;;;;5071939;28;20035;-71
2022/11/18 04:19:44;;;;;;;31.20;19.55;;;;;;;;;;5081372;28;20054;-71
2022/11/18 04:22:09;;;;;;;66.85;37.95;;;;;;;;;;5082040;28;20024;-70
2022/11/18 04:24:35;;;;;;;82.85;46.97;;;;;;;;;;5080322;28;20059;-70
2022/11/18 04:27:01;;;;;;;54.65;31.45;;;;;;;;;;5077979;28;20516;-70
2022/11/18 04:29:27;;;;;;;39.25;23.92;;;;;;;;;;5080777;28;20034;-69
2022/11/18 04:31:52;;;;;;;230.32;117.75;;;;;;;;;;5069810;28;20439;-70
2022/11/18 04:34:17;;;;;;;118.18;66.20;;;;;;;;;;5079441;28;20020;-70
2022/11/18 04:36:43;;;;;;;51.28;30.77;;;;;;;;;;5081312;28;20047;-69
2022/11/18 04:39:08;;;;;;;41.30;24.90;;;;;;;;;;5080834;28;20069;-69
2022/11/18 04:44:17;;;;;;;67.10;48.13;;;;;;;;;;5076213;28;20351;-70
2022/11/18 04:46:42;;;;;;;76.63;58.70;;;;;;;;;;5063032;28;20020;-69
2022/11/18 04:49:09;;;;;;;76.15;55.42;;;;;;;;;;5075489;28;20035;-74
2022/11/18 04:51:34;;;;;;;61.25;48.17;;;;;;;;;;5073149;28;20035;-70
2022/11/18 04:54:00;;;;;;;33.05;24.88;;;;;;;;;;5076698;28;20350;-70
2022/11/18 04:56:25;;;;;;;41.42;29.42;;;;;;;;;;5071786;28;20031;-70
2022/11/18 04:58:50;;;;;;;47.88;37.00;;;;;;;;;;5067156;28;20572;-70
2022/11/18 05:01:16;;;;;;;52.25;41.72;;;;;;;;;;5066478;28;20027;-70
2022/11/18 05:03:41;;;;;;;61.92;43.65;;;;;;;;;;5065729;28;20020;-71
2022/11/18 05:06:06;;;;;;;40.85;28.40;;;;;;;;;;5066063;28;20024;-69
2022/11/18 05:08:32;;;;;;;24.40;16.50;;;;;;;;;;5068956;28;20154;-72
2022/11/18 05:12:47;;;;;;;70.75;53.55;;;;;;;;;;5074201;28;20115;-69
2022/11/18 05:13:42;;;;;;;42.60;31.67;;;;;;;;;;5080054;28;20462;-71
2022/11/18 05:16:08;;;;;;;58.80;47.53;;;;;;;;;;5079582;28;20027;-69
2022/11/18 05:18:33;;;;;;;43.30;32.25;;;;;;;;;;5078324;28;20040;-69
2022/11/18 05:20:58;;;;;;;33.58;26.17;;;;;;;;;;5080106;28;20129;-71
2022/11/18 05:23:24;;;;;;;47.55;38.70;;;;;;;;;;5072117;28;20071;-70
2022/11/18 05:25:49;;;;;;;1242.53;799.80;;;;;;;;;;5067628;28;20097;-74
2022/11/18 05:28:14;;;;;;;466.15;315.80;;;;;;;;;;5074893;28;20447;-69
2022/11/18 05:30:39;;;;;;;662.35;482.33;;;;;;;;;;5078385;28;20438;-70
2022/11/18 05:33:05;;;;;;;543.25;400.92;;;;;;;;;;5067857;28;20306;-73
2022/11/18 05:35:30;;;;;;;358.70;273.70;;;;;;;;;;5066079;28;20043;-73
2022/11/18 05:37:55;;;;;;;387.17;316.42;;;;;;;;;;5068453;28;20084;-72
2022/11/18 05:40:21;;;;;;;184.32;146.60;;;;;;;;;;5071051;28;20386;-72
2022/11/18 05:45:30;;;;;;;233.82;193.52;;;;;;;;;;5067376;28;20039;-71
2022/11/18 05:47:59;;;;;;;116.68;95.70;;;;;;;;;;5069013;28;20032;-72
2022/11/18 05:50:25;;;;;;;84.63;74.68;;;;;;;;;;5070439;28;21120;-73
2022/11/18 05:52:50;;;;;;;108.00;96.63;;;;;;;;;;5078257;28;20027;-73
2022/11/18 05:55:16;;;;;;;98.97;88.30;;;;;;;;;;5078865;28;20027;-73
2022/11/18 05:57:41;;;;;;;132.85;118.45;;;;;;;;;;5077090;28;20040;-72
2022/11/18 06:00:08;;;;;;;51.03;45.53;;;;;;;;;;5078262;28;20359;-73
2022/11/18 06:02:33;;;;;;;112.63;101.05;;;;;;;;;;5077690;28;20056;-71
2022/11/18 06:04:59;;;;;;;50.38;38.22;;;;;;;;;;5077461;28;20071;-71
2022/11/18 06:07:32;;;;;;;38.97;30.85;;;;;;;;;;5079404;28;20036;-76
2022/11/18 06:09:58;;;;;;;66.85;56.08;;;;;;;;;;5078935;28;20067;-70
2022/11/18 06:12:25;;;;;;;30.15;26.15;;;;;;;;;;5077364;28;20031;-70
2022/11/18 06:14:53;;;;;;;39.05;34.53;;;;;;;;;;5075254;28;20051;-70
2022/11/18 06:17:25;;;;;;;66.13;52.75;;;;;;;;;;5066882;28;20028;-71
2022/11/18 06:19:51;;;;;;;41.13;34.72;;;;;;;;;;5072064;28;20047;-72
2022/11/18 06:22:16;;;;;;;36.00;31.83;;;;;;;;;;5082357;28;20028;-73
2022/11/18 06:24:42;;;;;;;49.50;41.72;;;;;;;;;;5083381;28;20056;-73
2022/11/18 06:27:07;;;;;;;48.67;39.95;;;;;;;;;;5084824;28;20027;-72
2022/11/18 06:29:33;;;;;;;59.75;50.88;;;;;;;;;;5084610;28;20024;-72
2022/11/18 06:31:58;;;;;;;43.33;37.38;;;;;;;;;;5085657;28;20035;-73
2022/11/18 06:34:23;;;;;;;24.77;20.65;;;;;;;;;;5084671;28;20031;-72
2022/11/18 06:36:49;;;;;;;34.28;26.42;;;;;;;;;;5067409;28;20020;-72
2022/11/18 06:39:14;;;;;;;29.05;24.52;;;;;;;;;;5065443;28;20032;-74
2022/11/18 06:41:39;;;;;;;33.03;28.00;;;;;;;;;;5081609;28;20016;-75
2022/11/18 06:44:05;;;;;;;38.50;32.10;;;;;;;;;;5079044;28;20487;-71
2022/11/18 06:49:14;;;;;;;42.97;34.45;;;;;;;;;;5081180;28;20359;-71
2022/11/18 06:51:40;;;;;;;37.63;30.75;;;;;;;;;;5080620;28;20509;-69
2022/11/18 06:54:05;;;;;;;41.83;32.75;;;;;;;;;;5082469;28;20067;-71
2022/11/18 06:56:30;;;;;;;32.53;25.83;;;;;;;;;;5081017;28;20020;-71
2022/11/18 06:58:57;;;;;;;46.25;36.58;;;;;;;;;;5078446;28;20039;-71
2022/11/18 07:01:27;;;;;;;52.30;37.25;;;;;;;;;;5071936;28;20051;-70
2022/11/18 07:03:52;;;;;;;;;;;;;;;;;;5083098;28;20015;-71
2022/11/18 07:06:18;;;;;;;56.13;43.07;;;;;;;;;;5080164;28;19911;-70
2022/11/18 07:08:44;;;;;;;43.17;36.70;;;;;;;;;;5082340;28;20256;-70
2022/11/18 07:11:11;;;;;;;92.93;65.03;;;;;;;;;;5081764;28;20038;-70
2022/11/18 07:13:36;;;;;;;88.70;66.45;;;;;;;;;;5081523;28;20031;-70
2022/11/18 07:16:03;;;;;;;92.10;69.28;;;;;;;;;;5078157;28;20464;-70
2022/11/18 07:18:29;;;;;;;76.82;59.60;;;;;;;;;;5080323;28;20056;-71
2022/11/18 07:20:54;;;;;;;65.15;53.15;;;;;;;;;;5077778;28;20027;-70
2022/11/18 07:23:20;;;;;;;64.80;54.90;;;;;;;;;;5082475;28;20099;-70
2022/11/18 07:25:45;;;;;;;165.05;135.63;;;;;;;;;;5078425;28;20027;-71
2022/11/18 07:28:10;;;;;;;107.28;93.32;;;;;;;;;;5080505;28;20123;-68
2022/11/18 07:30:36;;;;;;;81.93;67.75;;;;;;;;;;5078135;28;20074;-69
2022/11/18 07:33:01;;;;;;;47.95;39.53;;;;;;;;;;5078041;28;20047;-69
2022/11/18 07:35:26;;;;;;;41.15;35.85;;;;;;;;;;5078061;28;20030;-70
2022/11/18 07:37:52;;;;;;;35.08;28.15;;;;;;;;;;5080754;28;20036;-70
2022/11/18 07:40:17;;;;;;;23.95;19.15;;;;;;;;;;5080387;28;20073;-70
2022/11/18 07:42:43;;;;;;;28.70;22.20;;;;;;;;;;5079185;28;20029;-71
2022/11/18 07:45:10;;;;;;;36.97;29.85;;;;;;;;;;5079113;28;20032;-69
2022/11/18 07:47:35;;;;;;;39.63;32.67;;;;;;;;;;5080558;28;20028;-69
2022/11/18 07:50:00;;;;;;;36.88;29.25;;;;;;;;;;5076806;28;20035;-69
2022/11/18 07:52:26;;;;;;;30.48;25.65;;;;;;;;;;5080068;28;20016;-69
2022/11/18 07:54:51;;;;;;;42.95;31.20;;;;;;;;;;5079943;28;20020;-69
2022/11/18 07:57:16;;;;;;;279.80;164.95;;;;;;;;;;5078999;28;20024;-69
2022/11/18 07:59:41;;;;;;;170.65;120.40;;;;;;;;;;5082331;28;20085;-71
2022/11/18 08:02:10;;;;;;;356.73;262.17;;;;;;;;;;5078266;28;20035;-71
2022/11/18 08:04:36;;;;;;;282.20;215.63;;;;;;;;;;5079712;28;20035;-68
2022/11/18 08:07:01;;;;;;;352.92;243.40;;;;;;;;;;5077448;28;20028;-71
2022/11/18 08:09:26;;;;;;;217.30;162.63;;;;;;;;;;5080149;28;20047;-69
2022/11/18 08:11:52;;;;;;;214.48;162.90;;;;;;;;;;5080897;28;20032;-69
2022/11/18 08:14:17;;;;;;;190.25;157.48;;;;;;;;;;5080574;28;20028;-71
2022/11/18 08:16:42;;;;;;;151.45;121.18;;;;;;;;;;5077152;28;20443;-72
2022/11/18 08:19:08;;;;;;;108.72;88.70;;;;;;;;;;5078434;28;20071;-69
2022/11/18 08:21:33;;;;;;;116.18;93.20;;;;;;;;;;5081060;28;20035;-71
2022/11/18 08:23:59;;;;;;;134.05;109.00;;;;;;;;;;5077948;28;20021;-70
2022/11/18 08:26:25;;;;;;;134.77;106.97;;;;;;;;;;5079145;28;20347;-69
2022/11/18 08:28:50;;;;;;;84.10;69.25;;;;;;;;;;5081218;28;20020;-70
2022/11/18 08:31:17;;;;;;;63.60;48.72;;;;;;;;;;5078259;28;20024;-70
2022/11/18 08:33:42;;;;;;;42.40;30.58;;;;;;;;;;5080838;28;20086;-70
2022/11/18 08:36:09;;;;;;;48.40;34.88;;;;;;;;;;5080784;28;20442;-69
2022/11/18 08:38:34;;;;;;;59.45;45.13;;;;;;;;;;5077575;28;20028;-69
2022/11/18 08:40:59;;;;;;;23.23;19.00;;;;;;;;;;5079246;28;20024;-69
2022/11/18 08:43:25;;;;;;;74.85;55.83;;;;;;;;;;5079887;28;20441;-70
2022/11/18 08:45:50;;;;;;;27.98;21.95;;;;;;;;;;5079141;28;20051;-69
2022/11/18 08:48:15;;;;;;;18.52;15.07;;;;;;;;;;5080634;28;20074;-69
2022/11/18 08:50:41;;;;;;;29.58;21.67;;;;;;;;;;5082234;28;20023;-72
2022/11/18 08:53:06;;;;;;;18.00;15.02;;;;;;;;;;5079544;28;20051;-71
2022/11/18 08:55:31;;;;;;;17.65;13.10;;;;;;;;;;5082125;28;20028;-70
2022/11/18 08:57:57;;;;;;;22.77;16.50;;;;;;;;;;5081085;28;20039;-69
2022/11/18 09:00:22;;;;;;;17.88;15.18;;;;;;;;;;5082590;28;20039;-69
2022/11/18 09:02:47;;;;;;;18.98;14.10;;;;;;;;;;5078244;28;20061;-70
2022/11/18 09:05:13;;;;;;;19.73;15.05;;;;;;;;;;5078704;28;20020;-70
2022/11/18 09:07:38;;;;;;;19.67;15.80;;;;;;;;;;5078771;28;20032;-71
2022/11/18 09:10:03;;;;;;;18.92;14.48;;;;;;;;;;5077681;28;20020;-69
2022/11/18 09:12:29;;;;;;;14.38;10.68;;;;;;;;;;5079674;28;20031;-72
2022/11/18 09:14:54;;;;;;;9.13;6.30;;;;;;;;;;5076446;28;20114;-69
2022/11/18 09:17:20;;;;;;;11.73;9.43;;;;;;;;;;5076234;28;20098;-70
2022/11/18 09:19:45;;;;;;;16.70;11.82;;;;;;;;;;5077474;28;20065;-70
2022/11/18 09:22:10;;;;;;;12.60;8.50;;;;;;;;;;5080085;28;20024;-72
2022/11/18 09:24:36;;;;;;;10.48;8.73;;;;;;;;;;5078572;28;20032;-70
2022/11/18 09:27:03;;;;;;;10.63;7.88;;;;;;;;;;5077060;28;20332;-72
2022/11/18 09:29:29;;;;;;;16.42;12.82;;;;;;;;;;5079058;28;20031;-70
2022/11/18 09:31:54;;;;;;;8.25;6.55;;;;;;;;;;5080450;28;20035;-71
2022/11/18 09:34:20;;;;;;;10.20;6.10;;;;;;;;;;5077784;28;20035;-71
2022/11/18 09:36:45;;;;;;;61.33;55.38;;;;;;;;;;5080207;28;20627;-69
2022/11/18 09:39:11;;;;;;;21.23;18.98;;;;;;;;;;5075760;28;20137;-70
2022/11/18 09:41:42;;;;;;;14.55;10.13;;;;;;;;;;5077272;28;20099;-69
2022/11/18 09:44:19;;;;;;;10.93;9.88;;;;;;;;;;5078443;28;20020;-70
2022/11/18 09:46:57;;;;;;;12.77;10.10;;;;;;;;;;5079981;28;20024;-71
2022/11/18 09:49:22;;;;;;;9.88;7.82;;;;;;;;;;5077809;28;20035;-70
2022/11/18 09:51:49;;;;;;;15.77;12.50;;;;;;;;;;5081028;28;20443;-71
2022/11/18 09:54:30;;;;;;;12.57;10.98;;;;;;;;;;5079210;28;20036;-71
2022/11/18 09:56:56;;;;;;;5.10;3.65;;;;;;;;;;5077918;28;20017;-70
2022/11/18 09:59:22;;;;;;;3.38;2.90;;;;;;;;;;5078947;28;20024;-70
2022/11/18 10:01:49;;;;;;;6.78;3.70;;;;;;;;;;5079162;28;20039;-71
2022/11/18 10:04:16;;;;;;;11.80;8.65;;;;;;;;;;5081211;28;20324;-70
2022/11/18 10:06:41;;;;;;;6.72;5.22;;;;;;;;;;5079843;28;20031;-70
2022/11/18 10:09:07;;;;;;;5.43;3.20;;;;;;;;;;5077046;28;20666;-72
2022/11/18 10:11:36;;;;;;;4.60;3.38;;;;;;;;;;5079008;28;20032;-70
2022/11/18 10:14:22;;;;;;;18.58;16.48;;;;;;;;;;5077378;28;20116;-71
2022/11/18 10:16:53;;;;;;;12.95;11.57;;;;;;;;;;5078752;28;20056;-70
2022/11/18 10:19:28;;;;;;;8.30;6.22;;;;;;;;;;5077570;28;20076;-71
2022/11/18 10:21:53;;;;;;;6.57;5.78;;;;;;;;;;5075834;28;20370;-69
2022/11/18 10:24:20;;;;;;;14.63;13.10;;;;;;;;;;5079132;28;20020;-71
2022/11/18 10:26:45;;;;;;;15.63;14.00;;;;;;;;;;5078619;28;20455;-70
2022/11/18 10:29:11;;;;;;;10.40;9.38;;;;;;;;;;5080356;28;20148;-72
2022/11/18 10:31:51;;;;;;;7.72;5.20;;;;;;;;;;5080981;28;20050;-71
2022/11/18 10:34:17;;;;;;;4.22;3.83;;;;;;;;;;5079736;28;20024;-70
2022/11/18 10:36:42;;;;;;;12.48;9.85;;;;;;;;;;5078888;28;20025;-71
2022/11/18 10:39:08;;;;;;;18.85;15.80;;;;;;;;;;5078647;28;20321;-70
2022/11/18 10:41:45;;;;;;;58.42;51.05;;;;;;;;;;5080126;28;20043;-71
2022/11/18 10:44:26;;;;;;;14.25;8.35;;;;;;;;;;5080040;28;20024;-70
2022/11/18 10:46:51;;;;;;;25.88;20.83;;;;;;;;;;5080335;28;20024;-70
2022/11/18 10:49:17;;;;;;;37.42;26.75;;;;;;;;;;5076942;28;20401;-69
2022/11/18 10:51:42;;;;;;;40.90;30.27;;;;;;;;;;5079403;28;20028;-69
2022/11/18 10:54:08;;;;;;;7.00;5.78;;;;;;;;;;5077957;28;20016;-70
2022/11/18 10:56:45;;;;;;;6.07;4.72;;;;;;;;;;5079393;28;20103;-71
2022/11/18 10:59:31;;;;;;;12.93;8.25;;;;;;;;;;5079315;28;20039;-72
2022/11/18 11:01:58;;;;;;;11.32;9.65;;;;;;;;;;5080493;28;20047;-70
2022/11/18 11:04:24;;;;;;;5.63;4.63;;;;;;;;;;5077285;28;20016;-70
2022/11/18 11:06:49;;;;;;;8.07;5.50;;;;;;;;;;5078354;28;20328;-70
2022/11/18 11:09:14;;;;;;;9.23;7.05;;;;;;;;;;5083192;28;20035;-70
2022/11/18 11:11:42;;;;;;;5.93;5.10;;;;;;;;;;5079711;28;20150;-71
2022/11/18 11:14:14;;;;;;;8.88;6.53;;;;;;;;;;5080046;28;20020;-70
2022/11/18 11:16:46;;;;;;;7.97;6.18;;;;;;;;;;5083050;28;20023;-71
2022/11/18 11:19:13;;;;;;;19.33;14.95;;;;;;;;;;5080952;28;20110;-71
2022/11/18 11:21:38;;;;;;;10.57;8.15;;;;;;;;;;5082033;28;20024;-70
2022/11/18 11:24:11;;;;;;;11.55;10.35;;;;;;;;;;5081514;28;20027;-72
2022/11/18 11:26:56;;;;;;;14.60;12.68;;;;;;;;;;5083172;28;20123;-71
2022/11/18 11:29:28;;;;;;;10.43;7.28;;;;;;;;;;5047093;28;20040;-70
2022/11/18 11:32:04;;;;;;;14.95;12.55;;;;;;;;;;5081675;28;20055;-71
2022/11/18 11:34:41;;;;;;;13.00;11.57;;;;;;;;;;5078597;28;20032;-70
2022/11/18 11:37:07;;;;;;;10.88;9.43;;;;;;;;;;5079396;28;20122;-72
2022/11/18 11:39:35;;;;;;;9.98;7.72;;;;;;;;;;5081872;28;20519;-70
2022/11/18 11:42:09;;;;;;;19.33;16.25;;;;;;;;;;5082118;28;20024;-70
2022/11/18 11:44:41;;;;;;;9.88;7.03;;;;;;;;;;5083178;28;20016;-70
2022/11/18 11:50:15;;;;;;;63.72;43.28;;;;;;;;;;5083089;28;20339;-72
2022/11/18 11:52:41;;;;;;;21.63;17.95;;;;;;;;;;5083749;28;20104;-72
2022/11/18 11:55:25;;;;;;;17.52;9.38;;;;;;;;;;5081495;28;20122;-69
2022/11/18 11:58:02;;;;;;;25.25;20.33;;;;;;;;;;5078421;28;20023;-70
2022/11/18 12:00:29;;;;;;;22.67;18.27;;;;;;;;;;5081105;28;20032;-68
2022/11/18 12:03:33;;;;;;;51.47;36.95;;;;;;;;;;5081526;28;20028;-70
2022/11/18 12:05:58;;;;;;;31.30;22.05;;;;;;;;;;5016374;28;20121;-70
2022/11/18 12:08:25;;;;;;;27.70;17.35;;;;;;;;;;5022159;28;20148;-70
2022/11/18 12:11:02;;;;;;;24.13;14.75;;;;;;;;;;5022881;28;20450;-69
2022/11/18 12:13:36;;;;;;;25.27;17.58;;;;;;;;;;5018559;28;20160;-70
2022/11/18 12:16:14;;;;;;;35.13;19.52;;;;;;;;;;5020620;28;20096;-71
2022/11/18 12:18:39;;;;;;;39.17;22.80;;;;;;;;;;5012317;28;20524;-70
2022/11/18 12:21:04;;;;;;;48.22;34.88;;;;;;;;;;5016717;28;20025;-71
2022/11/18 12:23:30;;;;;;;49.97;32.30;;;;;;;;;;5017077;28;20185;-71
2022/11/18 12:26:00;;;;;;;42.47;33.25;;;;;;;;;;5020295;28;20025;-71
2022/11/18 12:28:52;;;;;;;32.53;22.15;;;;;;;;;;5021607;28;20065;-71
2022/11/18 12:31:17;;;;;;;25.25;16.15;;;;;;;;;;5014938;28;20049;-70
2022/11/18 12:33:50;;;;;;;30.48;21.13;;;;;;;;;;5016324;28;20025;-70
2022/11/18 12:36:32;;;;;;;26.83;21.20;;;;;;;;;;5039545;28;20052;-70
2022/11/18 12:39:16;;;;;;;20.25;14.40;;;;;;;;;;5079972;28;20107;-70
2022/11/18 12:44:30;;;;;;;37.58;26.50;;;;;;;;;;5079041;28;20088;-71
2022/11/18 12:46:56;;;;;;;31.92;24.50;;;;;;;;;;5081635;28;20115;-71
2022/11/18 12:49:22;;;;;;;42.85;32.30;;;;;;;;;;5080543;28;20024;-71
2022/11/18 12:51:51;;;;;;;48.20;33.97;;;;;;;;;;5081275;28;20454;-71
2022/11/18 12:54:31;;;;;;;34.95;27.23;;;;;;;;;;5076466;28;20059;-70
2022/11/18 12:57:12;;;;;;;39.63;32.08;;;;;;;;;;5078251;28;20515;-71
2022/11/18 12:59:37;;;;;;;46.13;36.08;;;;;;;;;;5079575;28;20024;-71
2022/11/18 13:02:15;;;;;;;58.28;45.38;;;;;;;;;;5077563;28;20438;-71
2022/11/18 13:04:40;;;;;;;43.05;36.92;;;;;;;;;;5078797;28;20021;-72
2022/11/18 13:08:11;;;;;;;36.17;31.60;;;;;;;;;;5080589;28;20116;-71
2022/11/18 13:09:54;;;;;;;33.40;29.75;;;;;;;;;;5080481;28;20464;-71
2022/11/18 13:12:25;;;;;;;37.50;31.00;;;;;;;;;;5077373;28;20035;-71
2022/11/18 13:17:51;;;;;;;30.30;20.80;;;;;;;;;;5078356;28;21016;-71
2022/11/18 13:20:26;;;;;;;82.82;69.65;;;;;;;;;;5077506;28;20024;-72
2022/11/18 13:25:36;;;;;;;120.63;100.85;;;;;;;;;;5076976;28;20038;-71
2022/11/18 13:28:11;;;;;;;79.22;69.40;;;;;;;;;;5078225;28;20036;-71
2022/11/18 13:30:42;;;;;;;71.28;60.88;;;;;;;;;;5077602;28;20039;-71
2022/11/18 13:33:09;;;;;;;82.15;64.97;;;;;;;;;;5076892;28;20443;-71
2022/11/18 13:35:38;;;;;;;37.42;28.10;;;;;;;;;;5078689;28;20039;-70
2022/11/18 13:38:07;;;;;;;56.25;45.72;;;;;;;;;;5077262;28;20427;-70
2022/11/18 13:41:05;;;;;;;52.17;38.72;;;;;;;;;;5078796;28;20038;-71
2022/11/18 13:43:32;;;;;;;115.50;82.88;;;;;;;;;;5062766;28;20355;-71
2022/11/18 13:45:59;;;;;;;92.25;65.80;;;;;;;;;;5066182;28;20023;-71
2022/11/18 13:48:24;;;;;;;70.30;54.17;;;;;;;;;;5067367;28;20047;-71
2022/11/18 13:50:53;;;;;;;39.97;30.83;;;;;;;;;;5068332;28;20032;-71
2022/11/18 13:53:29;;;;;;;100.57;83.90;;;;;;;;;;5067052;28;20111;-71
2022/11/18 13:56:02;;;;;;;118.20;100.68;;;;;;;;;;5067413;28;20075;-72
2022/11/18 13:58:50;;;;;;;118.40;94.53;;;;;;;;;;5067913;28;20024;-72
2022/11/18 14:01:19;;;;;;;109.72;83.05;;;;;;;;;;5068035;28;20454;-71
2022/11/18 14:03:47;;;;;;;94.82;74.88;;;;;;;;;;5067069;28;20144;-70
2022/11/18 14:06:23;;;;;;;62.67;53.78;;;;;;;;;;5066579;28;20143;-70
2022/11/18 14:08:49;;;;;;;85.15;76.25;;;;;;;;;;5068588;28;20167;-71
2022/11/18 14:11:33;;;;;;;72.32;63.22;;;;;;;;;;5067640;28;20031;-71
2022/11/18 14:13:58;;;;;;;146.70;130.63;;;;;;;;;;5067770;28;20475;-71
2022/11/18 14:16:29;;;;;;;111.13;99.28;;;;;;;;;;5066937;28;20059;-71
2022/11/18 14:18:54;;;;;;;131.45;117.22;;;;;;;;;;5067082;28;20075;-70
2022/11/18 14:21:27;;;;;;;118.88;106.72;;;;;;;;;;5050080;28;20443;-71
2022/11/18 14:23:53;;;;;;;124.90;112.30;;;;;;;;;;5068071;28;20447;-71
2022/11/18 14:26:32;;;;;;;142.60;127.72;;;;;;;;;;5067632;28;20032;-70
2022/11/18 14:28:59;;;;;;;142.32;127.55;;;;;;;;;;5067457;28;20036;-72
2022/11/18 14:31:24;;;;;;;252.63;196.40;;;;;;;;;;5066884;28;20058;-72
2022/11/18 14:34:26;;;;;;;125.72;107.50;;;;;;;;;;5067067;28;20033;-71
2022/11/18 14:36:52;;;;;;;128.40;105.65;;;;;;;;;;5001484;28;20033;-71
2022/11/18 14:39:25;;;;;;;124.70;105.75;;;;;;;;;;5003108;28;20416;-73
2022/11/18 14:41:50;;;;;;;100.53;86.07;;;;;;;;;;5008015;28;20677;-70
2022/11/18 14:44:17;;;;;;;57.65;51.35;;;;;;;;;;5007385;28;20945;-72
2022/11/18 14:46:43;;;;;;;33.55;29.45;;;;;;;;;;5012738;28;20029;-72
2022/11/18 14:49:16;;;;;;;23.88;20.48;;;;;;;;;;5016052;28;20052;-72
2022/11/18 14:51:42;;;;;;;63.38;49.42;;;;;;;;;;5016447;28;20037;-73